Time;durP1;ratioP1;P1;durP2;ratioP2;P2;SDS_P1;SDS_P2;PMS_P1;PMS_P2;Temp;Humidity;BMP_temperature;BMP_pressure;BME280_temperature;BME280_humidity;BME280_pressure;Samples;Min_cycle;Max_cycle;Signal;HPM_P1;HPM_P2
2022/09/22 00:02:27;;;;;;;;;;;1.70;99.90;;;;;;5124357;27;19911;-58
2022/09/22 00:05:08;;;;;;;;;;;1.70;99.90;;;;;;5124981;27;19918;-55
2022/09/22 00:07:47;;;;;;;;;;;1.70;99.90;;;;;;5124845;27;19915;-54
2022/09/22 00:10:27;;;;;;;;;;;1.60;99.90;;;;;;5124626;27;20303;-57
2022/09/22 00:13:07;;;;;;;;;;;1.60;99.90;;;;;;5084689;28;20459;-55
2022/09/22 00:15:47;;;;;;;;;;;1.70;99.90;;;;;;5104902;27;19930;-55
2022/09/22 00:18:27;;;;;;;;;;;1.90;99.90;;;;;;5125352;27;19912;-57
2022/09/22 00:21:11;;;;;;;;;;;2.00;99.90;;;;;;5145784;27;20310;-54
2022/09/22 00:23:52;;;;;;;;;;;2.20;99.90;;;;;;5084628;28;20370;-55
2022/09/22 00:26:33;;;;;;;;;;;2.40;99.90;;;;;;5103814;27;19916;-54
2022/09/22 00:29:15;;;;;;;;;;;2.50;99.90;;;;;;5080959;27;19982;-55
2022/09/22 00:31:55;;;;;;;;;;;2.50;99.90;;;;;;5104339;27;19954;-54
2022/09/22 00:34:35;;;;;;;;;;;2.60;99.90;;;;;;5099433;27;19973;-57
2022/09/22 00:37:15;;;;;;;;;;;2.60;99.90;;;;;;5103581;27;20415;-55
2022/09/22 00:39:55;;;;;;;;;;;2.70;99.90;;;;;;5082359;28;19913;-55
2022/09/22 00:42:34;;;;;;;;;;;2.80;99.90;;;;;;5123941;27;19912;-56
2022/09/22 00:45:14;;;;;;;;;;;2.80;99.90;;;;;;5104109;27;20138;-56
2022/09/22 00:47:54;;;;;;;;;;;2.80;99.90;;;;;;5103429;27;19962;-55
2022/09/22 00:50:34;;;;;;;;;;;2.90;99.90;;;;;;5084015;28;20366;-57
2022/09/22 00:53:15;;;;;;;;;;;2.90;99.90;;;;;;5105348;27;19916;-56
2022/09/22 00:55:58;;;;;;;;;;;2.90;99.90;;;;;;5104850;27;19958;-58
2022/09/22 00:58:41;;;;;;;;;;;3.00;99.90;;;;;;5096997;27;19957;-57
2022/09/22 01:01:21;;;;;;;;;;;2.90;99.90;;;;;;5105901;27;19926;-53
2022/09/22 01:04:01;;;;;;;;;;;3.00;99.90;;;;;;5125641;27;19912;-56
2022/09/22 01:06:41;;;;;;;;;;;2.90;99.90;;;;;;5104892;27;20422;-55
2022/09/22 01:09:22;;;;;;;;;;;3.00;99.90;;;;;;5090582;27;19946;-57
2022/09/22 01:12:03;;;;;;;;;;;3.00;99.90;;;;;;5104902;27;19912;-57
2022/09/22 01:14:51;;;;;;;;;;;3.00;99.90;;;;;;5104620;27;19912;-55
2022/09/22 01:17:34;;;;;;;;;;;2.90;99.90;;;;;;5104621;27;19927;-54
2022/09/22 01:20:27;;;;;;;;;;;2.70;99.90;;;;;;5103224;27;20210;-54
2022/09/22 01:23:27;;;;;;;;;;;2.60;99.90;;;;;;5104381;27;19926;-58
2022/09/22 01:26:18;;;;;;;;;;;2.50;99.90;;;;;;5101511;27;19953;-54
2022/09/22 01:29:07;;;;;;;;;;;2.30;99.90;;;;;;5101132;27;20486;-58
2022/09/22 01:31:49;;;;;;;;;;;2.20;99.90;;;;;;5101486;27;19926;-54
2022/09/22 01:34:32;;;;;;;;;;;2.00;99.90;;;;;;5125380;27;20073;-57
2022/09/22 01:37:17;;;;;;;;;;;1.90;99.90;;;;;;5104724;27;19926;-55
2022/09/22 01:40:02;;;;;;;;;;;1.80;99.90;;;;;;5104709;27;19945;-54
2022/09/22 01:42:44;;;;;;;;;;;1.70;99.90;;;;;;5104784;27;20335;-56
2022/09/22 01:45:28;;;;;;;;;;;1.70;99.90;;;;;;5105460;27;19926;-55
2022/09/22 01:48:11;;;;;;;;;;;1.90;99.90;;;;;;5104917;27;19961;-57
2022/09/22 01:50:54;;;;;;;;;;;2.10;99.90;;;;;;5121180;27;19950;-57
2022/09/22 01:53:37;;;;;;;;;;;2.40;99.90;;;;;;5104817;27;19945;-58
2022/09/22 01:56:18;;;;;;;;;;;2.50;99.90;;;;;;5105252;27;19953;-55
2022/09/22 01:59:00;;;;;;;;;;;2.70;99.90;;;;;;5104024;27;19912;-54
2022/09/22 02:01:43;;;;;;;;;;;2.70;99.90;;;;;;5104796;27;19911;-55
2022/09/22 02:04:25;;;;;;;;;;;2.80;99.90;;;;;;5105306;27;19958;-52
2022/09/22 02:07:06;;;;;;;;;;;2.80;99.90;;;;;;5104787;27;19926;-58
2022/09/22 02:09:47;;;;;;;;;;;2.70;99.90;;;;;;5086966;27;20032;-56
2022/09/22 02:12:27;;;;;;;;;;;2.60;99.90;;;;;;5105224;27;19926;-54
2022/09/22 02:15:58;;;;;;;;;;;2.40;99.90;;;;;;5104854;27;19954;-57
2022/09/22 02:18:12;;;;;;;;;;;2.30;99.90;;;;;;5104586;27;19912;-55
2022/09/22 02:20:52;;;;;;;;;;;2.30;99.90;;;;;;5084161;28;20370;-56
2022/09/22 02:23:32;;;;;;;;;;;2.30;99.90;;;;;;5104900;27;19926;-55
2022/09/22 02:26:13;;;;;;;;;;;2.40;99.90;;;;;;5102812;27;19931;-56
2022/09/22 02:28:55;;;;;;;;;;;2.40;99.90;;;;;;5097703;27;19969;-59
2022/09/22 02:31:36;;;;;;;;;;;2.30;99.90;;;;;;5104294;27;20210;-53
2022/09/22 02:34:16;;;;;;;;;;;2.30;99.90;;;;;;5124726;27;20383;-54
2022/09/22 02:37:02;;;;;;;;;;;2.30;99.90;;;;;;5104356;27;19912;-56
2022/09/22 02:39:46;;;;;;;;;;;2.30;99.90;;;;;;5088127;27;20333;-56
2022/09/22 02:42:27;;;;;;;;;;;2.40;99.90;;;;;;5104771;27;19969;-56
2022/09/22 02:45:09;;;;;;;;;;;2.40;99.90;;;;;;5104753;27;19926;-56
2022/09/22 02:47:51;;;;;;;;;;;2.40;99.90;;;;;;5104580;27;19930;-56
2022/09/22 02:50:32;;;;;;;;;;;2.30;99.90;;;;;;5124975;27;19912;-56
2022/09/22 02:53:14;;;;;;;;;;;2.30;99.90;;;;;;5125894;27;19918;-56
2022/09/22 02:55:54;;;;;;;;;;;2.20;99.90;;;;;;5104852;27;20423;-56
2022/09/22 02:58:34;;;;;;;;;;;2.10;99.90;;;;;;5104454;27;19916;-56
2022/09/22 03:01:14;;;;;;;;;;;2.10;99.90;;;;;;5104763;27;19926;-56
2022/09/22 03:03:53;;;;;;;;;;;2.00;99.90;;;;;;5102733;27;19930;-56
2022/09/22 03:06:33;;;;;;;;;;;1.90;99.90;;;;;;5123828;27;19916;-56
2022/09/22 03:09:15;;;;;;;;;;;1.90;99.90;;;;;;5090165;27;20379;-56
2022/09/22 03:11:55;;;;;;;;;;;1.80;99.90;;;;;;5125144;27;19911;-56
2022/09/22 03:14:34;;;;;;;;;;;1.80;99.90;;;;;;5103829;27;19953;-56
2022/09/22 03:17:14;;;;;;;;;;;1.70;99.90;;;;;;5103706;27;19977;-56
2022/09/22 03:19:54;;;;;;;;;;;1.70;99.90;;;;;;5083968;28;20425;-56
2022/09/22 03:22:34;;;;;;;;;;;1.60;99.90;;;;;;5104852;27;19926;-56
2022/09/22 03:25:14;;;;;;;;;;;1.60;99.90;;;;;;5104969;27;19926;-57
2022/09/22 03:27:53;;;;;;;;;;;1.60;99.90;;;;;;5082753;27;19958;-56
2022/09/22 03:30:34;;;;;;;;;;;1.50;99.90;;;;;;5100846;27;19912;-56
2022/09/22 03:33:15;;;;;;;;;;;1.50;99.90;;;;;;5103731;27;19926;-56
2022/09/22 03:35:55;;;;;;;;;;;1.50;99.90;;;;;;5104206;27;19930;-57
2022/09/22 03:38:34;;;;;;;;;;;1.50;99.90;;;;;;5100957;27;20092;-56
2022/09/22 03:41:14;;;;;;;;;;;1.50;99.90;;;;;;5104519;27;19969;-57
2022/09/22 03:43:54;;;;;;;;;;;1.50;99.90;;;;;;5103506;27;19912;-56
2022/09/22 03:46:34;;;;;;;;;;;1.50;99.90;;;;;;5098306;27;19946;-56
2022/09/22 03:49:14;;;;;;;;;;;1.60;99.90;;;;;;5051558;28;19956;-56
2022/09/22 03:51:54;;;;;;;;;;;1.60;99.90;;;;;;5104050;27;19946;-56
2022/09/22 03:54:34;;;;;;;;;;;1.60;99.90;;;;;;5124005;27;19912;-56
2022/09/22 03:57:15;;;;;;;;;;;1.60;99.90;;;;;;5103378;27;19926;-57
2022/09/22 03:59:55;;;;;;;;;;;1.50;99.90;;;;;;5085889;27;19916;-55
2022/09/22 04:02:34;;;;;;;;;;;1.50;99.90;;;;;;5098304;27;19924;-56
2022/09/22 04:05:14;;;;;;;;;;;1.60;99.90;;;;;;5080340;28;20278;-56
2022/09/22 04:07:54;;;;;;;;;;;1.60;99.90;;;;;;5102008;27;20426;-56
2022/09/22 04:10:35;;;;;;;;;;;1.60;99.90;;;;;;5124204;27;20377;-56
2022/09/22 04:13:16;;;;;;;;;;;1.50;99.90;;;;;;5096961;27;19966;-56
2022/09/22 04:15:57;;;;;;;;;;;1.60;99.90;;;;;;5081128;27;19930;-56
2022/09/22 04:18:39;;;;;;;;;;;1.60;99.90;;;;;;5115230;27;19916;-56
2022/09/22 04:21:18;;;;;;;;;;;1.60;99.90;;;;;;5100690;27;19934;-56
2022/09/22 04:23:58;;;;;;;;;;;1.70;99.90;;;;;;5104379;27;19926;-56
2022/09/22 04:26:38;;;;;;;;;;;1.70;99.90;;;;;;5101336;27;19930;-56
2022/09/22 04:29:17;;;;;;;;;;;1.70;99.90;;;;;;5090332;27;19950;-57
2022/09/22 04:31:57;;;;;;;;;;;1.80;99.90;;;;;;5099288;27;19965;-54
2022/09/22 04:34:38;;;;;;;;;;;1.90;99.90;;;;;;5062421;28;19923;-56
2022/09/22 04:37:19;;;;;;;;;;;2.00;99.90;;;;;;5085495;27;19958;-55
2022/09/22 04:39:59;;;;;;;;;;;1.90;99.90;;;;;;5100680;27;19949;-56
2022/09/22 04:42:38;;;;;;;;;;;1.90;99.90;;;;;;5103713;27;20315;-56
2022/09/22 04:45:18;;;;;;;;;;;1.90;99.90;;;;;;5124934;27;19925;-54
2022/09/22 04:47:58;;;;;;;;;;;1.90;99.90;;;;;;5102536;27;19926;-56
2022/09/22 04:50:38;;;;;;;;;;;1.90;99.90;;;;;;5124763;27;19912;-56
2022/09/22 04:53:19;;;;;;;;;;;1.90;99.90;;;;;;5104970;27;19926;-56
2022/09/22 04:55:59;;;;;;;;;;;1.90;99.90;;;;;;5104834;27;19926;-56
2022/09/22 04:58:39;;;;;;;;;;;2.00;99.90;;;;;;5145436;27;19915;-54
2022/09/22 05:01:19;;;;;;;;;;;2.10;99.90;;;;;;5084906;28;19913;-56
2022/09/22 05:03:58;;;;;;;;;;;2.10;99.90;;;;;;5104965;27;19969;-56
2022/09/22 05:06:38;;;;;;;;;;;2.20;99.90;;;;;;5104817;27;20320;-56
2022/09/22 05:09:19;;;;;;;;;;;2.30;99.90;;;;;;5090840;27;19926;-56
2022/09/22 05:12:00;;;;;;;;;;;2.30;99.90;;;;;;5105196;27;19953;-56
2022/09/22 05:14:39;;;;;;;;;;;2.40;99.90;;;;;;5105008;27;20317;-56
2022/09/22 05:17:19;;;;;;;;;;;2.30;99.90;;;;;;5104300;27;19927;-56
2022/09/22 05:19:59;;;;;;;;;;;2.30;99.90;;;;;;5104162;27;19927;-56
2022/09/22 05:22:39;;;;;;;;;;;2.30;99.90;;;;;;5104885;27;19926;-56
2022/09/22 05:25:19;;;;;;;;;;;2.30;99.90;;;;;;5105265;27;19945;-54
2022/09/22 05:27:59;;;;;;;;;;;2.30;99.90;;;;;;5102680;27;19920;-56
2022/09/22 05:30:39;;;;;;;;;;;2.40;99.90;;;;;;5103942;27;20439;-56
2022/09/22 05:33:18;;;;;;;;;;;2.40;99.90;;;;;;5105285;27;19930;-56
2022/09/22 05:35:58;;;;;;;;;;;2.40;99.90;;;;;;5104495;27;19926;-56
2022/09/22 05:38:38;;;;;;;;;;;2.40;99.90;;;;;;5096858;27;19927;-56
2022/09/22 05:41:18;;;;;;;;;;;2.50;99.90;;;;;;5105043;27;19945;-56
2022/09/22 05:43:57;;;;;;;;;;;2.60;99.90;;;;;;5105031;27;20323;-56
2022/09/22 05:46:37;;;;;;;;;;;2.80;99.90;;;;;;5103668;27;19912;-56
2022/09/22 05:49:17;;;;;;;;;;;2.90;99.90;;;;;;5089812;27;19913;-56
2022/09/22 05:51:57;;;;;;;;;;;3.00;99.90;;;;;;5104295;27;19926;-56
2022/09/22 05:54:37;;;;;;;;;;;3.10;99.90;;;;;;5103800;27;19953;-56
2022/09/22 05:57:17;;;;;;;;;;;3.10;99.90;;;;;;5103750;27;20281;-56
2022/09/22 05:59:56;;;;;;;;;;;3.10;99.90;;;;;;5124130;27;20434;-56
2022/09/22 06:02:36;;;;;;;;;;;3.30;99.90;;;;;;5084280;28;19917;-56
2022/09/22 06:05:16;;;;;;;;;;;3.40;99.90;;;;;;5104203;27;20245;-56
2022/09/22 06:08:02;;;;;;;;;;;3.50;99.90;;;;;;5082345;28;19917;-56
2022/09/22 06:10:44;;;;;;;;;;;3.60;99.90;;;;;;5103770;27;19926;-56
2022/09/22 06:13:24;;;;;;;;;;;3.70;99.90;;;;;;5104599;27;19969;-56
2022/09/22 06:16:04;;;;;;;;;;;3.90;99.90;;;;;;5084685;28;20026;-56
2022/09/22 06:18:46;;;;;;;;;;;4.00;99.90;;;;;;5096078;27;19917;-56
2022/09/22 06:21:26;;;;;;;;;;;4.10;99.90;;;;;;5105480;27;20338;-56
2022/09/22 06:24:06;;;;;;;;;;;4.10;99.90;;;;;;5105090;27;19912;-56
2022/09/22 06:26:46;;;;;;;;;;;4.20;99.90;;;;;;5084413;28;19920;-56
2022/09/22 06:29:27;;;;;;;;;;;4.30;99.90;;;;;;5089968;27;19912;-56
2022/09/22 06:32:08;;;;;;;;;;;4.50;99.90;;;;;;5105018;27;19930;-56
2022/09/22 06:34:47;;;;;;;;;;;4.60;99.90;;;;;;5125223;27;19911;-56
2022/09/22 06:37:27;;;;;;;;;;;4.70;99.90;;;;;;5105158;27;19962;-56
2022/09/22 06:40:08;;;;;;;;;;;4.60;99.90;;;;;;5085490;27;19969;-56
2022/09/22 06:42:48;;;;;;;;;;;4.50;99.90;;;;;;5105141;27;19949;-56
2022/09/22 06:45:32;;;;;;;;;;;4.60;99.90;;;;;;5125531;27;19916;-55
2022/09/22 06:48:13;;;;;;;;;;;4.60;99.90;;;;;;5121134;27;20279;-56
2022/09/22 06:50:54;;;;;;;;;;;4.50;99.90;;;;;;5104019;27;19926;-55
2022/09/22 06:53:34;;;;;;;;;;;4.60;99.90;;;;;;5084653;28;19913;-56
2022/09/22 06:56:14;;;;;;;;;;;4.70;99.90;;;;;;5105005;27;20065;-56
2022/09/22 06:58:54;;;;;;;;;;;4.80;99.90;;;;;;5094314;27;20420;-55
2022/09/22 07:01:35;;;;;;;;;;;5.10;99.90;;;;;;5125300;27;19916;-56
2022/09/22 07:04:16;;;;;;;;;;;5.20;99.90;;;;;;5104317;27;19949;-56
2022/09/22 07:06:56;;;;;;;;;;;5.20;99.90;;;;;;5100296;27;19926;-55
2022/09/22 07:09:36;;;;;;;;;;;5.20;99.90;;;;;;5095749;27;19926;-56
2022/09/22 07:12:18;;;;;;;;;;;5.20;99.90;;;;;;5103270;27;19916;-55
2022/09/22 07:14:59;;;;;;;;;;;5.10;99.90;;;;;;5103435;27;19954;-56
2022/09/22 07:17:39;;;;;;;;;;;5.10;99.90;;;;;;5103496;27;19969;-56
2022/09/22 07:20:19;;;;;;;;;;;5.20;99.90;;;;;;5082480;28;20402;-56
2022/09/22 07:22:59;;;;;;;;;;;5.30;99.90;;;;;;5124656;27;19911;-56
2022/09/22 07:25:40;;;;;;;;;;;5.30;99.90;;;;;;5097345;27;19950;-56
2022/09/22 07:28:21;;;;;;;;;;;5.30;99.90;;;;;;5083354;27;20068;-56
2022/09/22 07:31:05;;;;;;;;;;;5.30;99.90;;;;;;5087467;27;19916;-56
2022/09/22 07:33:45;;;;;;;;;;;5.30;99.90;;;;;;5122995;27;19912;-56
2022/09/22 07:36:26;;;;;;;;;;;5.40;99.90;;;;;;5103809;27;20623;-56
2022/09/22 07:39:07;;;;;;;;;;;5.50;99.90;;;;;;5091487;27;20143;-56
2022/09/22 07:41:47;;;;;;;;;;;5.50;99.90;;;;;;5104225;27;19950;-56
2022/09/22 07:50:18;;;;;;;;;;;5.80;99.90;;;;;;5102986;27;19912;-55
2022/09/22 07:52:58;;;;;;;;;;;5.90;99.90;;;;;;5104015;27;20352;-56
2022/09/22 07:55:39;;;;;;;;;;;6.00;99.90;;;;;;5104906;27;19926;-56
2022/09/22 07:58:20;;;;;;;;;;;6.10;99.90;;;;;;5120771;27;19954;-55
2022/09/22 08:01:04;;;;;;;;;;;6.20;99.90;;;;;;5104602;27;19920;-56
2022/09/22 08:03:45;;;;;;;;;;;6.40;99.90;;;;;;5104725;27;19926;-56
2022/09/22 08:06:26;;;;;;;;;;;6.50;99.90;;;;;;5104806;27;19957;-56
2022/09/22 08:09:07;;;;;;;;;;;6.60;99.90;;;;;;5092050;27;19950;-55
2022/09/22 08:11:48;;;;;;;;;;;6.70;99.90;;;;;;5125409;27;19912;-56
2022/09/22 08:14:28;;;;;;;;;;;6.90;99.90;;;;;;5105155;27;20300;-56
2022/09/22 08:17:11;;;;;;;;;;;7.00;99.90;;;;;;5104533;27;19926;-55
2022/09/22 08:19:51;;;;;;;;;;;7.10;99.90;;;;;;5145478;27;19922;-55
2022/09/22 08:22:31;;;;;;;;;;;7.20;99.90;;;;;;5125563;27;20289;-55
2022/09/22 08:25:12;;;;;;;;;;;7.30;99.90;;;;;;5104971;27;19973;-55
2022/09/22 08:27:53;;;;;;;;;;;7.50;99.90;;;;;;5103520;27;20471;-56
2022/09/22 08:30:35;;;;;;;;;;;7.60;99.90;;;;;;5104594;27;20124;-55
2022/09/22 08:33:15;;;;;;;;;;;7.70;99.90;;;;;;5104863;27;19930;-55
2022/09/22 08:35:57;;;;;;;;;;;7.90;99.90;;;;;;5104708;27;19953;-53
2022/09/22 08:38:38;;;;;;;;;;;8.00;99.90;;;;;;5077767;28;19913;-55
2022/09/22 08:41:21;;;;;;;;;;;8.10;99.90;;;;;;5105126;27;19926;-55
2022/09/22 08:44:02;;;;;;;;;;;8.30;99.90;;;;;;5105381;27;19926;-55
2022/09/22 08:46:43;;;;;;;;;;;8.40;99.90;;;;;;5124851;27;19919;-55
2022/09/22 08:52:26;;;;;;;;;;;8.60;99.90;;;;;;5105252;27;19926;-55
2022/09/22 08:55:20;;;;;;;;;;;8.80;99.90;;;;;;5125734;27;19930;-55
2022/09/22 08:58:02;;;;;;;;;;;8.90;99.90;;;;;;5102556;27;19946;-55
2022/09/22 09:00:45;;;;;;;;;;;9.00;99.90;;;;;;5104356;27;19946;-55
2022/09/22 09:03:32;;;;;;;;;;;9.20;99.90;;;;;;5104847;27;19930;-55
2022/09/22 09:06:15;;;;;;;;;;;9.40;99.90;;;;;;5105198;27;20165;-53
2022/09/22 09:09:02;;;;;;;;;;;9.60;99.90;;;;;;5093932;27;20444;-55
2022/09/22 09:11:57;;;;;;;;;;;9.70;99.90;;;;;;5105327;27;19969;-55
2022/09/22 09:14:46;;;;;;;;;;;10.00;99.90;;;;;;5105216;27;20143;-55
2022/09/22 09:17:29;;;;;;;;;;;10.20;99.90;;;;;;5105363;27;19930;-54
2022/09/22 09:20:16;;;;;;;;;;;10.40;99.90;;;;;;5104622;27;20373;-55
2022/09/22 09:22:56;;;;;;;;;;;10.60;99.90;;;;;;5125638;27;19912;-55
2022/09/22 09:25:38;;;;;;;;;;;10.80;99.90;;;;;;5125251;27;20540;-55
2022/09/22 09:28:21;;;;;;;;;;;11.10;99.90;;;;;;5120298;27;19938;-55
2022/09/22 09:31:08;;;;;;;;;;;11.40;99.90;;;;;;5104595;27;19961;-55
2022/09/22 09:33:57;;;;;;;;;;;11.60;99.90;;;;;;5104714;27;19926;-55
2022/09/22 09:36:40;;;;;;;;;;;11.70;99.90;;;;;;5104393;27;20323;-55
2022/09/22 09:39:26;;;;;;;;;;;11.90;99.90;;;;;;5119799;27;19957;-55
2022/09/22 09:42:16;;;;;;;;;;;12.00;99.90;;;;;;5105084;27;19926;-55
2022/09/22 09:45:01;;;;;;;;;;;12.10;99.90;;;;;;5104591;27;20320;-55
2022/09/22 09:47:46;;;;;;;;;;;12.20;99.90;;;;;;5104573;27;19926;-56
2022/09/22 09:50:30;;;;;;;;;;;12.30;99.90;;;;;;5104271;27;20331;-55
2022/09/22 09:53:20;;;;;;;;;;;12.40;99.90;;;;;;5084258;28;20307;-55
2022/09/22 09:56:01;;;;;;;;;;;12.50;99.90;;;;;;5104775;27;19912;-55
2022/09/22 10:01:53;;;;;;;;;;;12.90;99.90;;;;;;5105114;27;19912;-55
2022/09/22 10:04:34;;;;;;;;;;;13.10;99.90;;;;;;5105440;27;19912;-56
2022/09/22 10:07:15;;;;;;;;;;;13.30;99.90;;;;;;5104593;27;19912;-55
2022/09/22 10:09:56;;;;;;;;;;;13.30;99.90;;;;;;5098814;27;20267;-55
2022/09/22 10:12:36;;;;;;;;;;;13.40;99.90;;;;;;5105058;27;19926;-53
2022/09/22 10:15:23;;;;;;;;;;;13.40;99.90;;;;;;5104942;27;19954;-55
2022/09/22 10:18:03;;;;;;;;;;;13.40;99.90;;;;;;5101962;27;19919;-55
2022/09/22 10:20:44;;;;;;;;;;;13.70;99.90;;;;;;5103562;27;20293;-55
2022/09/22 10:23:27;;;;;;;;;;;14.20;99.90;;;;;;5104848;27;19930;-56
2022/09/22 10:26:18;;;;;;;;;;;14.40;99.90;;;;;;5104928;27;20439;-55
2022/09/22 10:29:21;;;;;;;;;;;14.50;99.90;;;;;;5093474;27;19970;-55
2022/09/22 10:32:04;;;;;;;;;;;14.60;99.90;;;;;;5104927;27;19969;-56
2022/09/22 10:34:44;;;;;;;;;;;14.60;99.90;;;;;;5104195;27;19926;-55
2022/09/22 10:37:26;;;;;;;;;;;14.60;99.90;;;;;;5093717;27;19941;-56
2022/09/22 10:40:12;;;;;;;;;;;14.60;99.90;;;;;;5080433;27;19926;-55
2022/09/22 10:42:54;;;;;;;;;;;14.60;99.90;;;;;;5103824;27;20435;-55
2022/09/22 10:45:40;;;;;;;;;;;14.60;99.90;;;;;;5097958;27;19947;-55
2022/09/22 10:48:22;;;;;;;;;;;14.60;99.90;;;;;;5098963;27;19927;-55
2022/09/22 10:51:07;;;;;;;;;;;14.50;99.90;;;;;;5103527;27;19916;-55
2022/09/22 10:53:54;;;;;;;;;;;14.60;99.90;;;;;;5104649;27;19953;-55
2022/09/22 10:56:36;;;;;;;;;;;14.70;99.90;;;;;;5104647;27;19939;-56
2022/09/22 10:59:31;;;;;;;;;;;15.00;99.90;;;;;;5091088;27;20382;-55
2022/09/22 11:02:30;;;;;;;;;;;15.20;99.90;;;;;;5105029;27;19945;-55
2022/09/22 11:05:17;;;;;;;;;;;15.70;99.90;;;;;;5104923;27;19930;-55
2022/09/22 11:14:07;;;;;;;;;;;16.60;99.90;;;;;;5104950;27;20315;-55
2022/09/22 11:16:51;;;;;;;;;;;16.80;99.90;;;;;;5104946;27;19946;-55
2022/09/22 11:19:40;;;;;;;;;;;17.10;99.90;;;;;;5109613;27;19912;-56
2022/09/22 11:22:34;;;;;;;;;;;17.50;99.90;;;;;;5104594;27;19926;-56
2022/09/22 11:25:21;;;;;;;;;;;17.90;94.90;;;;;;5125237;27;19918;-55
2022/09/22 11:28:07;;;;;;;;;;;17.80;97.60;;;;;;5102016;27;20145;-56
2022/09/22 11:30:49;;;;;;;;;;;17.90;91.50;;;;;;5103829;27;19926;-56
2022/09/22 11:33:37;;;;;;;;;;;17.50;80.00;;;;;;5104172;27;20328;-56
2022/09/22 11:36:20;;;;;;;;;;;17.10;80.20;;;;;;5104732;27;20444;-56
2022/09/22 11:39:16;;;;;;;;;;;16.60;84.80;;;;;;5092844;27;20328;-55
2022/09/22 11:42:00;;;;;;;;;;;16.20;85.70;;;;;;5105040;27;20320;-56
2022/09/22 11:44:43;;;;;;;;;;;15.80;86.40;;;;;;5104851;27;19935;-55
2022/09/22 11:47:32;;;;;;;;;;;15.50;91.20;;;;;;5104896;27;19930;-56
2022/09/22 11:50:31;;;;;;;;;;;15.40;93.80;;;;;;5084224;28;19927;-56
2022/09/22 11:53:24;;;;;;;;;;;15.60;92.70;;;;;;5084994;28;19916;-56
2022/09/22 11:56:15;;;;;;;;;;;15.90;90.10;;;;;;5103344;27;19938;-56
2022/09/22 11:58:57;;;;;;;;;;;16.10;90.60;;;;;;5094017;27;19927;-53
2022/09/22 12:01:39;;;;;;;;;;;16.20;92.50;;;;;;5104831;27;19969;-56
2022/09/22 12:04:25;;;;;;;;;;;16.50;93.50;;;;;;5105072;27;19930;-56
2022/09/22 12:07:08;;;;;;;;;;;16.80;94.10;;;;;;5104586;27;19927;-56
2022/09/22 12:09:52;;;;;;;;;;;16.80;88.30;;;;;;5107525;27;20263;-55
2022/09/22 12:12:33;;;;;;;;;;;16.80;89.50;;;;;;5125180;27;19930;-56
2022/09/22 12:15:19;;;;;;;;;;;17.10;88.70;;;;;;5105199;27;19969;-56
2022/09/22 12:18:01;;;;;;;;;;;17.20;83.10;;;;;;5102512;27;19929;-56
2022/09/22 12:20:47;;;;;;;;;;;17.70;81.90;;;;;;5104123;27;19926;-56
2022/09/22 12:23:36;;;;;;;;;;;18.10;76.70;;;;;;5104613;27;19916;-55
2022/09/22 12:26:26;;;;;;;;;;;18.40;72.60;;;;;;5104484;27;19927;-56
2022/09/22 12:29:09;;;;;;;;;;;18.70;64.70;;;;;;5090760;27;19946;-56
2022/09/22 12:31:51;;;;;;;;;;;19.00;62.30;;;;;;5122717;27;19926;-56
2022/09/22 12:34:33;;;;;;;;;;;18.80;60.50;;;;;;5087151;27;20579;-56
2022/09/22 12:37:14;;;;;;;;;;;18.80;61.40;;;;;;5103562;27;19981;-56
2022/09/22 12:39:54;;;;;;;;;;;18.70;59.60;;;;;;5054171;28;19916;-54
2022/09/22 12:42:35;;;;;;;;;;;18.60;61.30;;;;;;5124659;27;19912;-55
2022/09/22 12:45:19;;;;;;;;;;;18.60;62.00;;;;;;5089047;27;19934;-55
2022/09/22 12:48:01;;;;;;;;;;;18.20;60.60;;;;;;5101037;27;19930;-56
2022/09/22 12:50:42;;;;;;;;;;;18.00;63.80;;;;;;5103511;27;20419;-55
2022/09/22 12:53:26;;;;;;;;;;;17.80;66.30;;;;;;5104425;27;19954;-55
2022/09/22 12:56:29;;;;;;;;;;;17.60;67.80;;;;;;5103166;27;20340;-55
2022/09/22 12:59:23;;;;;;;;;;;17.50;71.30;;;;;;5091464;27;19926;-54
2022/09/22 13:02:28;;;;;;;;;;;17.50;68.30;;;;;;5083737;28;20271;-56
2022/09/22 13:05:25;;;;;;;;;;;17.50;70.90;;;;;;5083368;28;19912;-56
2022/09/22 13:08:05;;;;;;;;;;;17.50;70.70;;;;;;5120828;27;20332;-56
2022/09/22 13:10:53;;;;;;;;;;;17.30;71.40;;;;;;5103465;27;19915;-55
2022/09/22 13:13:36;;;;;;;;;;;17.10;69.50;;;;;;5104670;27;20430;-56
2022/09/22 13:16:36;;;;;;;;;;;16.80;70.10;;;;;;5104721;27;19954;-56
2022/09/22 13:19:16;;;;;;;;;;;16.70;71.70;;;;;;5070920;28;19917;-56
2022/09/22 13:21:56;;;;;;;;;;;16.40;70.20;;;;;;5080915;27;19912;-55
2022/09/22 13:24:36;;;;;;;;;;;16.20;74.80;;;;;;5101095;27;19912;-56
2022/09/22 13:27:16;;;;;;;;;;;15.90;76.50;;;;;;5153835;27;19956;-55
2022/09/22 13:29:58;;;;;;;;;;;15.60;80.10;;;;;;5123549;27;20356;-56
2022/09/22 13:32:39;;;;;;;;;;;15.40;86.20;;;;;;5080588;28;20358;-56
2022/09/22 13:35:25;;;;;;;;;;;15.20;86.80;;;;;;5090858;27;19935;-56
2022/09/22 13:38:06;;;;;;;;;;;15.00;84.70;;;;;;5099914;27;19926;-56
2022/09/22 13:40:48;;;;;;;;;;;14.90;89.90;;;;;;5098405;27;19934;-54
2022/09/22 13:43:31;;;;;;;;;;;14.80;90.40;;;;;;5120595;27;19911;-56
2022/09/22 13:46:16;;;;;;;;;;;14.80;86.20;;;;;;5103240;27;20349;-56
2022/09/22 13:48:57;;;;;;;;;;;15.00;78.90;;;;;;5094403;27;19961;-56
2022/09/22 13:51:38;;;;;;;;;;;15.30;84.90;;;;;;5090083;27;19913;-54
2022/09/22 13:54:18;;;;;;;;;;;15.60;74.50;;;;;;5093306;27;19919;-53
2022/09/22 13:57:00;;;;;;;;;;;15.80;72.50;;;;;;5099744;27;20323;-56
2022/09/22 13:59:41;;;;;;;;;;;15.90;78.10;;;;;;5101054;27;19926;-56
2022/09/22 14:02:22;;;;;;;;;;;16.00;75.90;;;;;;5080958;27;19916;-56
2022/09/22 14:05:04;;;;;;;;;;;16.00;81.20;;;;;;5088449;27;19930;-55
2022/09/22 14:07:45;;;;;;;;;;;16.20;85.10;;;;;;5095407;27;19938;-55
2022/09/22 14:10:26;;;;;;;;;;;16.20;71.80;;;;;;5095935;27;19934;-53
2022/09/22 14:13:26;;;;;;;;;;;16.20;73.00;;;;;;5075555;28;19917;-55
2022/09/22 14:16:09;;;;;;;;;;;16.20;71.30;;;;;;5095194;27;20436;-55
2022/09/22 14:18:51;;;;;;;;;;;16.20;67.20;;;;;;5088925;27;20336;-53
2022/09/22 14:21:32;;;;;;;;;;;16.20;60.00;;;;;;5117242;27;20124;-53
2022/09/22 14:24:14;;;;;;;;;;;16.30;58.00;;;;;;5101782;27;19916;-54
2022/09/22 14:26:56;;;;;;;;;;;16.40;57.40;;;;;;5077477;28;19946;-55
2022/09/22 14:29:37;;;;;;;;;;;16.40;57.40;;;;;;5083638;27;19935;-55
2022/09/22 14:32:19;;;;;;;;;;;16.40;60.60;;;;;;5097194;27;19973;-55
2022/09/22 14:35:01;;;;;;;;;;;16.40;66.00;;;;;;5097509;27;19945;-55
2022/09/22 14:37:44;;;;;;;;;;;16.40;60.30;;;;;;5101392;27;19950;-53
2022/09/22 14:40:25;;;;;;;;;;;16.30;57.40;;;;;;5143368;22;20245;-55
2022/09/22 14:43:07;;;;;;;;;;;16.00;59.40;;;;;;5121477;27;19919;-55
2022/09/22 14:45:56;;;;;;;;;;;15.90;61.00;;;;;;5103319;27;19934;-55
2022/09/22 14:48:37;;;;;;;;;;;15.70;69.40;;;;;;5082766;28;19916;-55
2022/09/22 14:51:19;;;;;;;;;;;15.50;62.80;;;;;;5104622;27;19957;-56
2022/09/22 14:54:04;;;;;;;;;;;15.30;61.10;;;;;;5104550;27;19926;-55
2022/09/22 14:56:44;;;;;;;;;;;15.20;61.60;;;;;;5104334;27;20430;-55
2022/09/22 15:02:35;;;;;;;;;;;15.00;63.40;;;;;;5104519;27;19916;-55
2022/09/22 15:05:24;;;;;;;;;;;14.90;63.90;;;;;;5104650;27;19912;-55
2022/09/22 15:08:04;;;;;;;;;;;14.80;67.50;;;;;;5103521;27;19926;-56
2022/09/22 15:10:52;;;;;;;;;;;14.70;67.00;;;;;;5084956;27;19912;-56
2022/09/22 15:13:39;;;;;;;;;;;14.60;71.70;;;;;;5104713;27;19946;-56
2022/09/22 15:16:39;;;;;;;;;;;14.60;67.10;;;;;;5104842;27;19926;-55
2022/09/22 15:19:20;;;;;;;;;;;14.50;67.20;;;;;;5076401;28;19919;-56
2022/09/22 15:22:02;;;;;;;;;;;14.30;66.00;;;;;;5104257;27;19930;-56
2022/09/22 15:24:43;;;;;;;;;;;14.30;68.50;;;;;;5104549;27;19945;-55
2022/09/22 15:27:22;;;;;;;;;;;14.10;69.90;;;;;;5104509;27;19953;-55
2022/09/22 15:30:02;;;;;;;;;;;14.00;67.40;;;;;;5104656;27;19916;-55
2022/09/22 15:32:42;;;;;;;;;;;13.90;68.20;;;;;;5115821;27;19929;-56
2022/09/22 15:35:26;;;;;;;;;;;13.90;72.40;;;;;;5095907;27;19930;-56
2022/09/22 15:38:13;;;;;;;;;;;13.70;71.00;;;;;;5078351;28;19916;-56
2022/09/22 15:40:53;;;;;;;;;;;13.70;79.30;;;;;;5064179;27;19921;-56
2022/09/22 15:43:33;;;;;;;;;;;13.70;79.10;;;;;;5102392;27;19934;-56
2022/09/22 15:46:25;;;;;;;;;;;13.60;82.60;;;;;;5144216;27;19919;-56
2022/09/22 15:49:09;;;;;;;;;;;13.50;83.80;;;;;;5089698;27;20475;-55
2022/09/22 15:51:50;;;;;;;;;;;13.30;89.80;;;;;;5101299;27;19920;-55
2022/09/22 15:54:30;;;;;;;;;;;13.10;91.70;;;;;;5103385;27;20385;-56
2022/09/22 15:57:12;;;;;;;;;;;13.00;92.80;;;;;;5102841;27;20345;-56
2022/09/22 15:59:52;;;;;;;;;;;12.90;93.40;;;;;;5073535;28;19912;-56
2022/09/22 16:02:32;;;;;;;;;;;12.80;94.50;;;;;;5102318;27;19916;-55
2022/09/22 16:05:24;;;;;;;;;;;12.80;95.10;;;;;;5074397;28;19927;-56
2022/09/22 16:08:04;;;;;;;;;;;12.70;95.30;;;;;;5081951;27;20324;-55
2022/09/22 16:10:44;;;;;;;;;;;12.70;94.40;;;;;;5059336;28;19917;-55
2022/09/22 16:13:26;;;;;;;;;;;12.60;96.40;;;;;;5098831;27;19970;-55
2022/09/22 16:16:07;;;;;;;;;;;12.40;99.90;;;;;;5089499;27;19934;-56